createdAt,value
2022-09-28T00:01:58.709Z,8.39
2022-09-28T00:04:26.217Z,8.41
2022-09-28T00:06:53.316Z,8.39
2022-09-28T00:09:20.305Z,8.39
2022-09-28T00:11:47.620Z,8.41
2022-09-28T00:14:15.487Z,8.35
2022-09-28T00:16:44.121Z,8.45
2022-09-28T00:19:12.863Z,8.56
2022-09-28T00:21:41.187Z,8.60
2022-09-28T00:24:15.681Z,8.58
2022-09-28T00:26:44.477Z,8.56
2022-09-28T00:29:19.630Z,8.51
2022-09-28T00:31:47.817Z,8.47
2022-09-28T00:34:16.133Z,8.40
2022-09-28T00:36:45.593Z,8.40
2022-09-28T00:39:14.624Z,8.41
2022-09-28T00:41:42.663Z,8.49
2022-09-28T00:44:38.207Z,8.59
2022-09-28T00:47:27.221Z,8.64
2022-09-28T00:50:05.988Z,8.67
2022-09-28T00:52:41.125Z,8.68
2022-09-28T00:55:12.415Z,8.69
2022-09-28T00:57:41.417Z,8.72
2022-09-28T01:00:09.109Z,8.70
2022-09-28T01:02:36.730Z,8.70
2022-09-28T01:05:05.755Z,8.69
2022-09-28T01:07:32.943Z,8.63
2022-09-28T01:10:00.165Z,8.62
2022-09-28T01:12:27.707Z,8.63
2022-09-28T01:14:57.166Z,8.57
2022-09-28T01:17:24.592Z,8.59
2022-09-28T01:20:16.386Z,8.59
2022-09-28T01:22:55.567Z,8.57
2022-09-28T01:25:54.982Z,8.58
2022-09-28T01:28:28.484Z,8.56
2022-09-28T01:31:12.715Z,8.54
2022-09-28T01:33:55.596Z,8.48
2022-09-28T01:36:27.061Z,8.58
2022-09-28T01:39:10.040Z,8.61
2022-09-28T01:41:40.256Z,8.68
2022-09-28T01:44:11.988Z,8.66
2022-09-28T01:46:46.754Z,8.60
2022-09-28T01:49:21.342Z,8.54
2022-09-28T01:52:09.842Z,8.53
2022-09-28T01:54:42.262Z,8.53
2022-09-28T01:57:32.418Z,8.61
2022-09-28T02:00:08.335Z,8.66
2022-09-28T02:02:56.280Z,8.67
2022-09-28T02:05:30.054Z,8.63
2022-09-28T02:08:07.312Z,8.60
2022-09-28T02:10:52.572Z,8.59
2022-09-28T02:13:43.900Z,8.58
2022-09-28T02:16:26.811Z,8.60
2022-09-28T02:18:53.822Z,8.63
2022-09-28T02:21:23.473Z,8.63
2022-09-28T02:24:12.048Z,8.67
2022-09-28T02:26:43.342Z,8.68
2022-09-28T02:29:10.630Z,8.66
2022-09-28T02:31:38.030Z,8.68
2022-09-28T02:34:05.244Z,8.67
2022-09-28T02:36:33.395Z,8.65
2022-09-28T02:39:02.343Z,8.62
2022-09-28T02:41:35.601Z,8.59
2022-09-28T02:44:14.931Z,8.55
2022-09-28T02:46:58.772Z,8.58
2022-09-28T02:49:35.230Z,8.55
2022-09-28T02:52:20.969Z,8.52
2022-09-28T02:55:10.230Z,8.44
2022-09-28T02:57:52.368Z,8.43
2022-09-28T03:00:22.705Z,8.44
2022-09-28T03:03:08.434Z,8.41
2022-09-28T03:06:18.398Z,8.43
2022-09-28T03:08:57.923Z,8.43
2022-09-28T03:11:40.998Z,8.44
2022-09-28T03:14:08.325Z,8.40
2022-09-28T03:16:36.455Z,8.38
2022-09-28T03:19:03.489Z,8.33
2022-09-28T03:21:30.570Z,8.34
2022-09-28T03:23:58.048Z,8.34
2022-09-28T03:26:25.058Z,8.37
2022-09-28T03:28:52.076Z,8.35
2022-09-28T03:31:19.980Z,8.38
2022-09-28T03:33:46.954Z,8.31
2022-09-28T03:36:15.204Z,8.30
2022-09-28T03:38:42.653Z,8.28
2022-09-28T03:41:10.617Z,8.24
2022-09-28T03:43:37.962Z,8.23
2022-09-28T03:46:05.607Z,8.22
2022-09-28T03:48:35.508Z,8.17
2022-09-28T03:51:05.423Z,8.20
2022-09-28T03:53:33.920Z,8.27
2022-09-28T03:56:10.197Z,8.23
2022-09-28T03:58:37.618Z,8.20
2022-09-28T04:01:07.587Z,8.20
2022-09-28T04:03:35.696Z,8.18
2022-09-28T04:06:02.807Z,8.15
2022-09-28T04:08:29.841Z,8.13
2022-09-28T04:10:58.081Z,8.08
2022-09-28T04:13:26.026Z,8.02
2022-09-28T04:15:54.565Z,8.00
2022-09-28T04:18:22.139Z,7.94
2022-09-28T04:21:07.431Z,7.86
2022-09-28T04:23:36.170Z,7.83
2022-09-28T04:26:04.998Z,7.75
2022-09-28T04:28:50.741Z,7.70
2022-09-28T04:31:21.037Z,7.79
2022-09-28T04:33:48.242Z,7.75
2022-09-28T04:36:15.258Z,7.86
2022-09-28T04:38:52.920Z,7.79
2022-09-28T04:41:22.514Z,7.75
2022-09-28T04:43:50.613Z,7.84
2022-09-28T04:46:18.281Z,7.83
2022-09-28T04:48:46.425Z,7.85
2022-09-28T04:51:14.182Z,7.86
2022-09-28T04:53:41.175Z,7.87
2022-09-28T04:56:11.239Z,7.88
2022-09-28T04:58:39.647Z,7.85
2022-09-28T05:01:09.494Z,7.84
2022-09-28T05:03:48.250Z,7.83
2022-09-28T05:06:15.990Z,7.82
2022-09-28T05:08:43.303Z,7.81
2022-09-28T05:11:11.926Z,7.73
2022-09-28T05:13:45.187Z,7.74
2022-09-28T05:16:15.765Z,7.75
2022-09-28T05:18:44.144Z,7.75
2022-09-28T05:21:13.081Z,7.75
2022-09-28T05:23:40.971Z,7.76
2022-09-28T05:26:08.345Z,7.81
2022-09-28T05:28:35.620Z,7.87
2022-09-28T05:31:08.331Z,8.02
2022-09-28T05:33:37.156Z,8.22
2022-09-28T05:36:04.326Z,8.43
2022-09-28T05:38:31.618Z,8.58
2022-09-28T05:41:01.204Z,8.75
2022-09-28T05:43:32.263Z,8.90
2022-09-28T05:46:00.431Z,9.04
2022-09-28T05:48:28.390Z,9.16
2022-09-28T05:50:55.591Z,9.28
2022-09-28T05:53:22.950Z,9.31
2022-09-28T05:55:50.238Z,9.41
2022-09-28T05:58:17.382Z,9.55
2022-09-28T06:00:44.678Z,9.55
2022-09-28T06:03:14.304Z,9.56
2022-09-28T06:05:41.572Z,9.69
2022-09-28T06:08:10.643Z,9.73
2022-09-28T06:10:38.917Z,9.70
2022-09-28T06:13:06.841Z,9.69
2022-09-28T06:15:35.487Z,9.67
2022-09-28T06:18:09.587Z,9.58
2022-09-28T06:20:41.233Z,9.68
2022-09-28T06:23:13.265Z,9.72
2022-09-28T06:25:40.484Z,9.78
2022-09-28T06:28:10.992Z,9.90
2022-09-28T06:30:39.823Z,9.94
2022-09-28T06:33:10.285Z,9.99
2022-09-28T06:35:37.360Z,10.04
2022-09-28T06:38:04.911Z,10.06
2022-09-28T06:40:33.427Z,10.11
2022-09-28T06:43:10.537Z,10.18
2022-09-28T06:45:42.955Z,10.18
2022-09-28T06:48:10.946Z,10.24
2022-09-28T06:50:40.542Z,10.39
2022-09-28T06:53:11.671Z,10.52
2022-09-28T06:55:46.010Z,10.67
2022-09-28T06:58:19.586Z,10.74
2022-09-28T07:00:48.962Z,10.85
2022-09-28T07:03:21.660Z,10.90
2022-09-28T07:05:51.317Z,11.01
2022-09-28T07:08:19.692Z,11.06
2022-09-28T07:10:49.243Z,11.25
2022-09-28T07:13:44.940Z,11.45
2022-09-28T07:16:04.789Z,11.65
2022-09-28T07:18:31.970Z,11.85
2022-09-28T07:20:59.708Z,11.95
2022-09-28T07:23:28.548Z,11.93
2022-09-28T07:25:58.396Z,11.97
2022-09-28T07:28:26.387Z,12.14
2022-09-28T07:30:57.444Z,12.28
2022-09-28T07:33:32.841Z,12.30
2022-09-28T07:36:06.552Z,12.57
2022-09-28T07:38:34.456Z,12.62
2022-09-28T07:41:14.792Z,12.64
2022-09-28T07:43:42.424Z,12.80
2022-09-28T07:46:12.247Z,13.00
2022-09-28T07:48:41.860Z,13.00
2022-09-28T07:51:10.066Z,13.01
2022-09-28T07:53:38.466Z,13.12
2022-09-28T07:56:09.461Z,13.13
2022-09-28T07:58:38.451Z,13.12
2022-09-28T08:01:08.728Z,13.25
2022-09-28T08:03:36.843Z,13.21
2022-09-28T08:06:07.269Z,13.27
2022-09-28T08:08:35.693Z,13.33
2022-09-28T08:11:03.272Z,13.35
2022-09-28T08:13:31.144Z,13.30
2022-09-28T08:16:01.755Z,13.32
2022-09-28T08:18:30.155Z,13.31
2022-09-28T08:21:17.119Z,13.48
2022-09-28T08:23:44.508Z,13.53
2022-09-28T08:26:15.334Z,13.57
2022-09-28T08:28:44.984Z,13.59
2022-09-28T08:31:18.726Z,13.72
2022-09-28T08:33:50.052Z,13.79
2022-09-28T08:36:25.391Z,13.90
2022-09-28T08:38:53.424Z,13.93
2022-09-28T08:42:05.431Z,14.14
2022-09-28T08:44:40.822Z,14.17
2022-09-28T08:47:41.014Z,14.02
2022-09-28T08:50:14.379Z,14.11
2022-09-28T08:52:43.423Z,14.08
2022-09-28T08:55:37.820Z,14.08
2022-09-28T08:58:12.571Z,14.59
2022-09-28T09:00:48.637Z,15.12
2022-09-28T09:03:21.173Z,15.44
2022-09-28T09:06:00.394Z,15.49
2022-09-28T09:08:52.380Z,15.56
2022-09-28T09:11:48.810Z,15.70
2022-09-28T09:14:57.769Z,15.59
2022-09-28T09:17:46.929Z,15.38
2022-09-28T09:20:15.569Z,15.42
2022-09-28T09:22:58.877Z,15.57
2022-09-28T09:25:50.581Z,15.82
2022-09-28T09:28:42.839Z,16.08
2022-09-28T09:31:22.542Z,16.15
2022-09-28T09:33:59.041Z,15.93
2022-09-28T09:37:04.199Z,15.54
2022-09-28T09:39:55.734Z,15.72
2022-09-28T09:42:52.414Z,15.88
2022-09-28T09:45:31.455Z,16.44
2022-09-28T09:48:03.275Z,16.59
2022-09-28T09:50:39.957Z,16.40
2022-09-28T09:53:26.003Z,16.30
2022-09-28T09:55:57.390Z,16.26
2022-09-28T09:58:35.340Z,16.37
2022-09-28T10:01:08.871Z,16.02
2022-09-28T10:03:40.839Z,15.86
2022-09-28T10:06:14.298Z,15.74
2022-09-28T10:08:44.649Z,15.71
2022-09-28T10:11:15.656Z,15.79
2022-09-28T10:13:44.708Z,15.93
2022-09-28T10:16:18.669Z,15.98
2022-09-28T10:18:46.482Z,16.11
2022-09-28T10:21:17.396Z,16.42
2022-09-28T10:23:50.763Z,16.77
2022-09-28T10:26:25.560Z,16.77
2022-09-28T10:29:02.031Z,16.79
2022-09-28T10:31:36.696Z,17.03
2022-09-28T10:34:06.136Z,17.06
2022-09-28T10:36:38.669Z,16.99
2022-09-28T10:39:06.295Z,16.63
2022-09-28T10:41:33.562Z,16.55
2022-09-28T10:44:10.986Z,16.68
2022-09-28T10:46:39.052Z,16.84
2022-09-28T10:49:15.664Z,16.80
2022-09-28T10:51:46.853Z,16.71
2022-09-28T10:54:17.200Z,16.66
2022-09-28T10:56:45.314Z,16.68
2022-09-28T10:59:24.630Z,16.80
2022-09-28T11:01:54.687Z,16.58
2022-09-28T11:04:24.594Z,16.86
2022-09-28T11:06:52.031Z,17.29
2022-09-28T11:09:31.626Z,17.59
2022-09-28T11:12:00.187Z,17.63
2022-09-28T11:14:42.112Z,17.81
2022-09-28T11:17:40.587Z,17.91
2022-09-28T11:20:28.429Z,17.51
2022-09-28T11:22:58.614Z,17.49
2022-09-28T11:25:28.574Z,17.70
2022-09-28T11:28:00.744Z,17.36
2022-09-28T11:30:34.940Z,17.85
2022-09-28T11:33:07.254Z,17.93
2022-09-28T11:36:00.255Z,18.14
2022-09-28T11:38:40.917Z,18.14
2022-09-28T11:41:36.863Z,17.95
2022-09-28T11:44:18.122Z,17.37
2022-09-28T11:47:04.106Z,17.85
2022-09-28T11:49:41.750Z,18.08
2022-09-28T11:52:47.193Z,18.02
2022-09-28T11:55:19.514Z,18.24
2022-09-28T11:57:50.686Z,18.12
2022-09-28T12:00:22.470Z,18.08
2022-09-28T12:03:05.782Z,18.00
2022-09-28T12:06:05.318Z,17.94
2022-09-28T12:08:37.465Z,17.71
2022-09-28T12:11:22.053Z,17.69
2022-09-28T12:13:54.232Z,17.89
2022-09-28T12:16:53.557Z,17.87
2022-09-28T12:19:19.745Z,17.38
2022-09-28T12:21:52.955Z,17.02
2022-09-28T12:24:25.113Z,16.34
2022-09-28T12:26:59.659Z,16.78
2022-09-28T12:29:31.928Z,16.71
2022-09-28T12:32:31.470Z,16.77
2022-09-28T12:34:58.942Z,17.11
2022-09-28T12:37:25.917Z,17.17
2022-09-28T12:40:03.488Z,17.22
2022-09-28T12:42:36.759Z,17.45
2022-09-28T12:45:12.655Z,17.17
2022-09-28T12:48:03.990Z,17.14
2022-09-28T12:50:52.588Z,17.09
2022-09-28T12:53:41.665Z,17.27
2022-09-28T12:56:25.234Z,16.75
2022-09-28T12:59:01.087Z,16.26
2022-09-28T13:01:43.754Z,16.75
2022-09-28T13:04:44.889Z,16.45
2022-09-28T13:07:37.904Z,16.45
2022-09-28T13:10:23.364Z,16.78
2022-09-28T13:13:16.666Z,16.90
2022-09-28T13:15:47.951Z,16.59
2022-09-28T13:18:38.771Z,17.33
2022-09-28T13:21:08.808Z,17.41
2022-09-28T13:23:39.747Z,17.51
2022-09-28T13:26:24.283Z,17.54
2022-09-28T13:28:54.796Z,17.40
2022-09-28T13:31:31.730Z,17.09
2022-09-28T13:34:01.997Z,17.21
2022-09-28T13:36:29.197Z,17.34
2022-09-28T13:38:59.400Z,17.06
2022-09-28T13:41:29.769Z,16.78
2022-09-28T13:44:10.869Z,16.92
2022-09-28T13:47:05.271Z,16.74
2022-09-28T13:49:41.608Z,16.68
2022-09-28T13:52:45.070Z,16.67
2022-09-28T13:55:23.265Z,16.56
2022-09-28T13:57:55.922Z,16.66
2022-09-28T14:00:30.781Z,16.66
2022-09-28T14:03:28.138Z,16.81
2022-09-28T14:06:27.128Z,16.87
2022-09-28T14:09:12.729Z,16.70
2022-09-28T14:11:42.442Z,16.44
2022-09-28T14:14:13.940Z,16.44
2022-09-28T14:16:42.002Z,16.19
2022-09-28T14:19:16.921Z,16.38
2022-09-28T14:21:58.170Z,16.47
2022-09-28T14:24:40.746Z,16.41
2022-09-28T14:27:26.579Z,16.48
2022-09-28T14:30:13.850Z,16.55
2022-09-28T14:33:02.816Z,16.53
2022-09-28T14:35:33.078Z,16.32
2022-09-28T14:38:36.896Z,16.00
2022-09-28T14:41:10.102Z,15.80
2022-09-28T14:43:38.209Z,15.73
2022-09-28T14:46:11.381Z,15.83
2022-09-28T14:48:48.077Z,15.76
2022-09-28T14:51:27.535Z,15.79
2022-09-28T14:53:56.755Z,15.69
2022-09-28T14:56:24.137Z,15.62
2022-09-28T14:58:54.498Z,15.53
2022-09-28T15:01:24.630Z,15.43
2022-09-28T15:03:55.168Z,15.16
2022-09-28T15:06:23.637Z,15.30
2022-09-28T15:08:50.683Z,15.32
2022-09-28T15:11:23.576Z,15.32
2022-09-28T15:13:53.943Z,15.33
2022-09-28T15:16:23.987Z,15.29
2022-09-28T15:18:51.037Z,15.27
2022-09-28T15:21:18.587Z,15.15
2022-09-28T15:23:46.893Z,15.03
2022-09-28T15:26:31.851Z,14.93
2022-09-28T15:29:02.981Z,14.90
2022-09-28T15:31:34.402Z,15.00
2022-09-28T15:34:20.211Z,15.08
2022-09-28T15:36:47.532Z,15.20
2022-09-28T15:39:31.022Z,15.33
2022-09-28T15:41:59.493Z,15.33
2022-09-28T15:44:35.179Z,15.26
2022-09-28T15:47:24.921Z,15.16
2022-09-28T15:50:00.257Z,15.06
2022-09-28T15:52:42.607Z,14.92
2022-09-28T15:55:20.790Z,14.74
2022-09-28T15:57:47.975Z,14.56
2022-09-28T16:00:21.399Z,14.52
2022-09-28T16:03:02.011Z,14.34
2022-09-28T16:05:35.853Z,14.32
2022-09-28T16:08:04.965Z,14.19
2022-09-28T16:10:34.353Z,14.09
2022-09-28T16:13:27.612Z,13.95
2022-09-28T16:15:57.998Z,13.85
2022-09-28T16:18:26.912Z,13.85
2022-09-28T16:21:18.843Z,13.80
2022-09-28T16:23:51.647Z,13.85
2022-09-28T16:26:29.811Z,13.71
2022-09-28T16:28:56.791Z,13.65
2022-09-28T16:31:27.948Z,13.68
2022-09-28T16:33:58.972Z,13.63
2022-09-28T16:36:29.847Z,13.66
2022-09-28T16:38:57.072Z,13.68
2022-09-28T16:41:27.542Z,13.71
2022-09-28T16:43:59.301Z,13.68
2022-09-28T16:46:37.132Z,13.51
2022-09-28T16:49:06.813Z,13.56
2022-09-28T16:51:33.877Z,13.51
2022-09-28T16:54:32.186Z,13.51
2022-09-28T16:57:00.195Z,13.55
2022-09-28T16:59:28.325Z,13.59
2022-09-28T17:01:57.886Z,13.55
2022-09-28T17:04:25.977Z,13.52
2022-09-28T17:06:54.380Z,13.52
2022-09-28T17:09:22.533Z,13.51
2022-09-28T17:11:56.100Z,13.45
2022-09-28T17:14:23.928Z,13.44
2022-09-28T17:17:12.704Z,13.33
2022-09-28T17:19:41.316Z,13.28
2022-09-28T17:22:09.434Z,13.34
2022-09-28T17:24:37.019Z,13.30
2022-09-28T17:27:04.219Z,13.25
2022-09-28T17:29:32.618Z,13.16
2022-09-28T17:31:59.641Z,12.96
2022-09-28T17:34:26.677Z,12.87
2022-09-28T17:36:54.253Z,12.87
2022-09-28T17:39:21.329Z,12.79
2022-09-28T17:41:48.307Z,12.74
2022-09-28T17:44:16.035Z,12.67
2022-09-28T17:46:47.418Z,12.56
2022-09-28T17:49:15.154Z,12.47
2022-09-28T17:51:42.541Z,12.48
2022-09-28T17:54:13.558Z,12.41
2022-09-28T17:56:40.543Z,12.30
2022-09-28T17:59:11.446Z,12.30
2022-09-28T18:01:39.725Z,12.34
2022-09-28T18:04:08.961Z,12.32
2022-09-28T18:06:37.375Z,12.22
2022-09-28T18:09:05.241Z,12.18
2022-09-28T18:11:33.457Z,12.23
2022-09-28T18:14:00.927Z,12.19
2022-09-28T18:16:28.974Z,12.24
2022-09-28T18:18:56.773Z,12.07
2022-09-28T18:21:23.784Z,12.02
2022-09-28T18:23:51.203Z,11.97
2022-09-28T18:26:21.170Z,11.95
2022-09-28T18:28:48.176Z,11.99
2022-09-28T18:31:15.873Z,11.97
2022-09-28T18:33:43.423Z,12.05
2022-09-28T18:36:11.482Z,12.00
2022-09-28T18:38:39.063Z,12.01
2022-09-28T18:41:10.124Z,11.94
2022-09-28T18:43:37.747Z,11.90
2022-09-28T18:46:11.708Z,11.88
2022-09-28T18:48:40.528Z,11.88
2022-09-28T18:51:08.896Z,11.91
2022-09-28T18:53:36.320Z,11.92
2022-09-28T18:56:11.900Z,11.99
2022-09-28T18:58:40.186Z,11.88
2022-09-28T19:01:29.089Z,11.78
2022-09-28T19:03:59.314Z,11.77
2022-09-28T19:06:29.804Z,11.80
2022-09-28T19:08:57.113Z,11.84
2022-09-28T19:11:24.969Z,11.97
2022-09-28T19:13:53.574Z,11.86
2022-09-28T19:16:24.057Z,11.93
2022-09-28T19:18:52.450Z,11.98
2022-09-28T19:21:19.941Z,12.06
2022-09-28T19:23:49.781Z,11.99
2022-09-28T19:26:20.982Z,11.97
2022-09-28T19:28:48.902Z,11.89
2022-09-28T19:31:16.235Z,12.02
2022-09-28T19:33:45.345Z,11.94
2022-09-28T19:36:18.475Z,11.85
2022-09-28T19:38:45.911Z,11.93
2022-09-28T19:41:39.492Z,11.88
2022-09-28T19:44:09.737Z,11.90
2022-09-28T19:46:38.866Z,11.95
2022-09-28T19:49:14.685Z,11.96
2022-09-28T19:52:01.665Z,11.97
2022-09-28T19:54:34.377Z,11.91
2022-09-28T19:57:11.477Z,11.86
2022-09-28T19:59:38.785Z,11.96
2022-09-28T20:02:07.376Z,12.05
2022-09-28T20:04:34.672Z,11.89
2022-09-28T20:07:02.406Z,11.89
2022-09-28T20:09:29.573Z,11.88
2022-09-28T20:11:57.219Z,11.92
2022-09-28T20:14:25.935Z,11.96
2022-09-28T20:16:55.211Z,11.89
2022-09-28T20:19:23.326Z,11.95
2022-09-28T20:21:50.457Z,11.84
2022-09-28T20:24:18.035Z,11.92
2022-09-28T20:26:45.906Z,11.94
2022-09-28T20:29:13.385Z,11.99
2022-09-28T20:31:40.882Z,11.97
2022-09-28T20:34:08.175Z,11.95
2022-09-28T20:36:35.220Z,12.04
2022-09-28T20:39:02.954Z,12.03
2022-09-28T20:41:35.615Z,11.99
2022-09-28T20:44:05.987Z,12.04
2022-09-28T20:46:35.119Z,12.02
2022-09-28T20:49:02.729Z,12.06
2022-09-28T20:51:29.775Z,11.96
2022-09-28T20:53:58.022Z,12.02
2022-09-28T20:56:26.308Z,11.99
2022-09-28T20:58:54.168Z,11.92
2022-09-28T21:01:24.126Z,11.86
2022-09-28T21:03:53.623Z,11.84
2022-09-28T21:06:22.380Z,11.84
2022-09-28T21:08:50.068Z,11.92
2022-09-28T21:11:37.645Z,11.97
2022-09-28T21:14:06.792Z,11.97
2022-09-28T21:16:34.923Z,11.98
2022-09-28T21:19:02.414Z,11.97
2022-09-28T21:21:29.761Z,11.99
2022-09-28T21:23:59.625Z,12.10
2022-09-28T21:26:28.393Z,12.00
2022-09-28T21:29:01.873Z,11.98
2022-09-28T21:31:40.601Z,11.98
2022-09-28T21:34:20.682Z,11.83
2022-09-28T21:36:51.003Z,11.85
2022-09-28T21:39:18.879Z,11.88
2022-09-28T21:41:46.019Z,11.85
2022-09-28T21:44:13.029Z,11.93
2022-09-28T21:46:40.413Z,11.87
2022-09-28T21:49:08.403Z,11.85
2022-09-28T21:51:35.804Z,11.87
2022-09-28T21:54:03.375Z,11.89
2022-09-28T21:56:30.408Z,11.86
2022-09-28T21:58:57.374Z,11.71
2022-09-28T22:01:26.100Z,11.83
2022-09-28T22:03:55.479Z,11.85
2022-09-28T22:06:24.258Z,11.87
2022-09-28T22:08:51.392Z,11.97
2022-09-28T22:11:21.048Z,11.92
2022-09-28T22:13:49.660Z,11.91
2022-09-28T22:16:19.215Z,11.88
2022-09-28T22:18:46.724Z,11.93
2022-09-28T22:21:17.148Z,11.85
2022-09-28T22:23:44.417Z,11.85
2022-09-28T22:26:18.007Z,11.95
2022-09-28T22:28:55.722Z,11.90
2022-09-28T22:31:25.806Z,11.89
2022-09-28T22:33:53.469Z,11.95
2022-09-28T22:36:21.008Z,11.96
2022-09-28T22:38:48.703Z,11.90
2022-09-28T22:41:18.698Z,11.97
2022-09-28T22:43:46.934Z,11.98
2022-09-28T22:46:19.062Z,11.92
2022-09-28T22:48:47.281Z,11.92
2022-09-28T22:51:15.315Z,11.84
2022-09-28T22:53:42.355Z,11.74
2022-09-28T22:56:12.584Z,11.84
2022-09-28T22:58:43.278Z,11.83
2022-09-28T23:01:17.193Z,11.77
2022-09-28T23:03:45.178Z,11.82
2022-09-28T23:06:14.082Z,11.83
2022-09-28T23:08:41.070Z,11.81
2022-09-28T23:11:08.528Z,11.75
2022-09-28T23:13:35.601Z,11.71
2022-09-28T23:16:05.435Z,11.78
2022-09-28T23:18:36.357Z,11.78
2022-09-28T23:21:06.485Z,11.78
2022-09-28T23:23:34.517Z,11.72
2022-09-28T23:26:19.425Z,11.75
2022-09-28T23:28:46.797Z,11.78
2022-09-28T23:31:43.085Z,11.82
2022-09-28T23:34:10.522Z,11.71
2022-09-28T23:36:37.527Z,11.76
2022-09-28T23:39:04.728Z,11.80
2022-09-28T23:41:32.065Z,11.81
2022-09-28T23:43:59.084Z,11.74
2022-09-28T23:46:26.229Z,11.69
2022-09-28T23:48:53.715Z,11.69
2022-09-28T23:51:20.711Z,11.69
2022-09-28T23:53:47.737Z,11.69
2022-09-28T23:56:15.434Z,11.67
2022-09-28T23:58:42.881Z,11.73
